createdAt,value
2023-02-11T00:02:17.834Z,8.98
2023-02-11T00:04:46.209Z,8.85
2023-02-11T00:07:14.494Z,8.78
2023-02-11T00:09:43.051Z,9.65
2023-02-11T00:12:11.348Z,11.00
2023-02-11T00:14:39.648Z,8.90
2023-02-11T00:17:07.908Z,7.78
2023-02-11T00:19:36.358Z,8.55
2023-02-11T00:22:04.627Z,11.30
2023-02-11T00:24:33.015Z,7.60
2023-02-11T00:27:01.316Z,8.70
2023-02-11T00:29:29.669Z,8.03
2023-02-11T00:31:58.871Z,7.62
2023-02-11T00:34:27.346Z,9.73
2023-02-11T00:36:55.723Z,8.93
2023-02-11T00:39:23.935Z,8.23
2023-02-11T00:41:52.256Z,6.80
2023-02-11T00:44:21.293Z,7.12
2023-02-11T00:46:49.537Z,8.98
2023-02-11T00:51:45.292Z,7.08
2023-02-11T00:54:13.534Z,8.05
2023-02-11T00:56:42.041Z,6.95
2023-02-11T00:59:10.344Z,6.30
2023-02-11T01:01:38.630Z,7.65
2023-02-11T01:04:07.041Z,7.25
2023-02-11T01:06:35.351Z,7.08
2023-02-11T01:09:03.647Z,6.92
2023-02-11T01:11:32.210Z,6.95
2023-02-11T01:14:00.487Z,7.40
2023-02-11T01:16:28.695Z,7.92
2023-02-11T01:18:57.148Z,6.45
2023-02-11T01:21:25.897Z,6.45
2023-02-11T01:23:54.119Z,6.00
2023-02-11T01:26:22.474Z,8.03
2023-02-11T01:28:50.756Z,8.90
2023-02-11T01:31:19.201Z,7.33
2023-02-11T01:33:47.624Z,6.08
2023-02-11T01:36:15.820Z,5.65
2023-02-11T01:41:14.619Z,5.78
2023-02-11T01:43:43.853Z,5.75
2023-02-11T01:46:19.918Z,6.72
2023-02-11T01:48:48.857Z,6.08
2023-02-11T01:51:21.757Z,7.12
2023-02-11T01:54:08.034Z,6.50
2023-02-11T01:56:55.865Z,5.55
2023-02-11T01:59:25.736Z,6.47
2023-02-11T02:01:55.771Z,5.90
2023-02-11T02:04:25.675Z,6.25
2023-02-11T02:06:55.544Z,5.83
2023-02-11T02:09:24.725Z,6.25
2023-02-11T02:11:52.945Z,5.12
2023-02-11T02:14:21.487Z,5.85
2023-02-11T02:16:49.763Z,6.08
2023-02-11T02:19:19.678Z,6.35
2023-02-11T02:21:49.794Z,5.80
2023-02-11T02:24:22.887Z,6.08
2023-02-11T02:27:01.736Z,6.00
2023-02-11T02:29:31.622Z,5.12
2023-02-11T02:32:13.535Z,4.83
2023-02-11T02:34:43.447Z,6.22
2023-02-11T02:37:13.355Z,6.10
2023-02-11T02:39:41.654Z,5.03
2023-02-11T02:42:09.953Z,5.75
2023-02-11T02:44:38.283Z,5.20
2023-02-11T02:47:06.856Z,5.60
2023-02-11T02:49:35.149Z,7.75
2023-02-11T02:52:08.734Z,5.80
2023-02-11T02:54:51.082Z,5.70
2023-02-11T02:57:37.963Z,6.08
2023-02-11T03:00:24.417Z,4.70
2023-02-11T03:05:38.431Z,6.55
2023-02-11T03:08:13.736Z,4.37
2023-02-11T03:10:43.689Z,4.65
2023-02-11T03:13:11.888Z,5.75
2023-02-11T03:18:07.803Z,5.08
2023-02-11T03:20:37.209Z,6.33
2023-02-11T03:23:07.117Z,5.20
2023-02-11T03:25:35.976Z,5.33
2023-02-11T03:28:05.927Z,5.28
2023-02-11T03:30:41.805Z,4.37
2023-02-11T03:33:11.998Z,6.75
2023-02-11T03:35:40.679Z,4.35
2023-02-11T03:38:13.465Z,6.15
2023-02-11T03:40:41.907Z,4.12
2023-02-11T03:43:20.158Z,4.10
2023-02-11T03:45:48.578Z,5.80
2023-02-11T03:48:18.753Z,4.65
2023-02-11T03:50:47.132Z,4.42
2023-02-11T03:53:15.406Z,4.70
2023-02-11T03:55:43.831Z,5.45
2023-02-11T03:58:12.070Z,4.70
2023-02-11T04:00:41.268Z,3.90
2023-02-11T04:03:09.761Z,4.22
2023-02-11T04:05:38.284Z,4.15
2023-02-11T04:08:06.628Z,5.65
2023-02-11T04:10:34.990Z,5.33
2023-02-11T04:13:03.260Z,5.62
2023-02-11T04:17:58.894Z,5.00
2023-02-11T04:20:27.335Z,5.58
2023-02-11T04:22:55.536Z,5.22
2023-02-11T04:27:51.238Z,4.85
2023-02-11T04:30:19.642Z,5.08
2023-02-11T04:32:47.930Z,5.25
2023-02-11T04:35:16.223Z,4.53
2023-02-11T04:37:44.697Z,5.95
2023-02-11T04:40:13.080Z,3.87
2023-02-11T04:42:41.314Z,4.45
2023-02-11T04:45:09.838Z,4.03
2023-02-11T04:47:38.214Z,5.33
2023-02-11T04:50:06.595Z,4.47
2023-02-11T04:52:34.846Z,5.80
2023-02-11T04:57:30.505Z,4.33
2023-02-11T04:59:58.780Z,4.12
2023-02-11T05:02:27.106Z,3.25
2023-02-11T05:04:55.345Z,5.65
2023-02-11T05:09:51.060Z,4.45
2023-02-11T05:12:19.349Z,4.30
2023-02-11T05:14:47.714Z,4.37
2023-02-11T05:17:16.099Z,4.10
2023-02-11T05:19:44.581Z,6.35
2023-02-11T05:22:12.928Z,5.42
2023-02-11T05:24:41.231Z,3.22
2023-02-11T05:27:09.482Z,3.98
2023-02-11T05:29:37.855Z,5.05
2023-02-11T05:32:07.226Z,4.03
2023-02-11T05:34:36.040Z,4.67
2023-02-11T05:37:04.356Z,4.47
2023-02-11T05:39:32.747Z,5.05
2023-02-11T05:42:01.019Z,5.03
2023-02-11T05:44:29.337Z,5.22
2023-02-11T05:46:57.580Z,4.90
2023-02-11T05:49:26.814Z,4.65
2023-02-11T05:51:55.073Z,6.30
2023-02-11T05:56:50.658Z,4.58
2023-02-11T05:59:18.948Z,5.15
2023-02-11T06:01:47.221Z,7.85
2023-02-11T06:04:15.411Z,5.70
2023-02-11T06:09:11.940Z,5.15
2023-02-11T06:11:40.107Z,6.20
2023-02-11T06:16:35.760Z,6.53
2023-02-11T06:19:04.149Z,4.90
2023-02-11T06:21:43.534Z,6.00
2023-02-11T06:24:02.467Z,7.35
2023-02-11T06:26:30.768Z,5.55
2023-02-11T06:29:02.157Z,5.35
2023-02-11T06:31:30.654Z,5.78
2023-02-11T06:33:59.337Z,7.28
2023-02-11T06:36:27.671Z,8.68
2023-02-11T06:38:56.031Z,8.48
2023-02-11T06:41:24.354Z,5.20
2023-02-11T06:43:53.048Z,6.95
2023-02-11T06:46:21.354Z,7.83
2023-02-11T06:48:49.604Z,5.87
2023-02-11T06:51:17.992Z,5.35
2023-02-11T06:53:46.570Z,6.47
2023-02-11T06:56:16.579Z,6.83
2023-02-11T06:58:44.780Z,4.67
2023-02-11T07:01:13.846Z,6.03
2023-02-11T07:03:43.090Z,6.12
2023-02-11T07:06:15.469Z,8.53
2023-02-11T07:08:45.368Z,7.00
2023-02-11T07:11:14.432Z,5.45
2023-02-11T07:13:42.817Z,7.17
2023-02-11T07:16:12.138Z,6.12
2023-02-11T07:18:40.480Z,8.93
2023-02-11T07:21:09.382Z,9.88
2023-02-11T07:23:37.575Z,6.72
2023-02-11T07:26:06.581Z,10.32
2023-02-11T07:28:35.018Z,7.60
2023-02-11T07:31:15.711Z,6.62
2023-02-11T07:33:45.785Z,7.45
2023-02-11T07:36:14.348Z,8.40
2023-02-11T07:38:42.617Z,8.68
2023-02-11T07:41:11.672Z,8.98
2023-02-11T07:43:39.922Z,8.75
2023-02-11T07:46:08.938Z,9.98
2023-02-11T07:48:37.213Z,10.13
2023-02-11T07:51:07.093Z,9.45
2023-02-11T07:53:35.365Z,10.08
2023-02-11T07:56:04.252Z,9.90
2023-02-11T07:58:32.763Z,10.15
2023-02-11T08:01:04.503Z,11.05
2023-02-11T08:03:32.930Z,11.45
2023-02-11T08:06:08.393Z,13.20
2023-02-11T08:08:36.901Z,13.25
2023-02-11T08:11:08.596Z,13.45
2023-02-11T08:13:36.831Z,12.93
2023-02-11T08:16:05.316Z,11.18
2023-02-11T08:18:33.934Z,11.03
2023-02-11T08:21:08.686Z,12.80
2023-02-11T08:23:38.077Z,11.20
2023-02-11T08:26:08.205Z,13.60
2023-02-11T08:28:37.345Z,13.03
2023-02-11T08:31:07.376Z,14.70
2023-02-11T08:33:35.688Z,13.53
2023-02-11T08:36:05.644Z,14.40
2023-02-11T08:38:33.995Z,15.93
2023-02-11T08:41:02.546Z,14.38
2023-02-11T08:43:30.775Z,12.15
2023-02-11T08:46:01.622Z,13.93
2023-02-11T08:48:29.130Z,17.70
2023-02-11T08:50:57.532Z,11.57
2023-02-11T08:53:25.729Z,15.43
2023-02-11T08:55:54.681Z,13.72
2023-02-11T08:58:23.025Z,16.00
2023-02-11T09:00:51.532Z,12.47
2023-02-11T09:03:20.064Z,14.00
2023-02-11T09:05:49.835Z,13.78
2023-02-11T09:08:18.401Z,15.25
2023-02-11T09:13:14.141Z,12.40
2023-02-11T09:15:44.059Z,15.10
2023-02-11T09:18:12.459Z,11.70
2023-02-11T09:20:40.705Z,14.18
2023-02-11T09:23:08.988Z,12.03
2023-02-11T09:25:38.939Z,13.03
2023-02-11T09:28:07.419Z,12.82
2023-02-11T09:30:37.172Z,11.55
2023-02-11T09:33:05.480Z,12.20
2023-02-11T09:35:34.774Z,13.43
2023-02-11T09:38:02.989Z,13.30
2023-02-11T09:40:31.434Z,11.35
2023-02-11T09:43:08.872Z,12.40
2023-02-11T09:45:37.111Z,12.37
2023-02-11T09:48:10.084Z,12.68
2023-02-11T09:50:39.946Z,13.15
2023-02-11T09:53:25.294Z,13.22
2023-02-11T09:55:59.521Z,11.48
2023-02-11T10:01:02.695Z,12.78
2023-02-11T10:03:33.598Z,11.80
2023-02-11T10:06:03.672Z,11.25
2023-02-11T10:08:38.342Z,11.35
2023-02-11T10:11:20.016Z,12.23
2023-02-11T10:13:48.867Z,9.75
2023-02-11T10:16:28.048Z,9.95
2023-02-11T10:19:02.616Z,10.90
2023-02-11T10:21:32.712Z,10.50
2023-02-11T10:24:01.532Z,11.22
2023-02-11T10:26:31.034Z,9.65
2023-02-11T10:29:00.387Z,11.38
2023-02-11T10:31:29.953Z,9.70
2023-02-11T10:33:59.957Z,11.03
2023-02-11T10:36:31.959Z,10.88
2023-02-11T10:39:01.936Z,10.53
2023-02-11T10:41:32.581Z,11.18
2023-02-11T10:44:01.768Z,13.13
2023-02-11T10:46:30.970Z,10.58
2023-02-11T10:48:59.550Z,10.08
2023-02-11T10:51:32.800Z,10.63
2023-02-11T10:54:13.319Z,9.63
2023-02-11T10:56:44.575Z,11.00
2023-02-11T10:59:19.761Z,10.25
2023-02-11T11:01:51.426Z,8.83
2023-02-11T11:04:34.530Z,8.68
2023-02-11T11:07:13.601Z,10.75
2023-02-11T11:09:49.351Z,9.15
2023-02-11T11:12:40.310Z,10.35
2023-02-11T11:15:21.802Z,9.18
2023-02-11T11:17:50.328Z,9.18
2023-02-11T11:20:27.449Z,8.85
2023-02-11T11:23:14.124Z,8.90
2023-02-11T11:25:43.723Z,9.60
2023-02-11T11:28:22.838Z,11.48
2023-02-11T11:30:51.619Z,9.73
2023-02-11T11:33:23.858Z,8.50
2023-02-11T11:35:59.685Z,7.85
2023-02-11T11:38:28.804Z,9.53
2023-02-11T11:41:16.300Z,9.00
2023-02-11T11:43:57.221Z,9.95
2023-02-11T11:46:30.092Z,10.03
2023-02-11T11:49:00.027Z,8.40
2023-02-11T11:51:28.341Z,7.35
2023-02-11T11:54:01.422Z,8.80
2023-02-11T11:56:30.927Z,7.55
2023-02-11T11:59:01.149Z,8.75
2023-02-11T12:01:31.299Z,8.50
2023-02-11T12:04:16.670Z,7.95
2023-02-11T12:06:52.608Z,8.60
2023-02-11T12:09:22.521Z,8.00
2023-02-11T12:12:01.645Z,9.28
2023-02-11T12:14:37.529Z,8.35
2023-02-11T12:17:10.395Z,7.92
2023-02-11T12:19:52.882Z,8.85
2023-02-11T12:22:40.886Z,7.37
2023-02-11T12:25:27.348Z,10.25
2023-02-11T12:28:03.057Z,8.08
2023-02-11T12:30:49.910Z,7.05
2023-02-11T12:33:23.077Z,8.58
2023-02-11T12:35:56.186Z,7.30
2023-02-11T12:38:28.713Z,9.18
2023-02-11T12:40:58.638Z,8.48
2023-02-11T12:43:28.518Z,9.33
2023-02-11T12:46:07.628Z,7.22
2023-02-11T12:48:37.748Z,6.97
2023-02-11T12:51:10.556Z,9.20
2023-02-11T12:53:57.262Z,8.33
2023-02-11T12:56:27.148Z,7.83
2023-02-11T12:58:56.351Z,8.50
2023-02-11T13:01:26.445Z,7.60
2023-02-11T13:04:02.358Z,7.62
2023-02-11T13:06:32.443Z,7.20
2023-02-11T13:09:01.753Z,6.80
2023-02-11T13:11:37.399Z,7.20
2023-02-11T13:14:07.251Z,7.40
2023-02-11T13:16:36.963Z,10.72
2023-02-11T13:19:07.046Z,7.67
2023-02-11T13:21:53.457Z,5.85
2023-02-11T13:27:02.577Z,6.42
2023-02-11T13:29:32.501Z,7.97
2023-02-11T13:32:10.920Z,6.83
2023-02-11T13:34:43.900Z,11.88
2023-02-11T14:02:23.773Z,14.97
2023-02-11T14:05:24.471Z,16.90
2023-02-11T14:08:27.762Z,17.30
2023-02-11T14:15:02.635Z,19.40
2023-02-11T14:17:31.638Z,26.37
2023-02-11T14:20:00.144Z,21.05
2023-02-11T14:22:29.800Z,20.25
2023-02-11T14:25:01.184Z,26.07
2023-02-11T14:27:30.612Z,20.45
2023-02-11T14:30:09.676Z,20.40
2023-02-11T14:32:45.693Z,41.68
2023-02-11T14:35:18.498Z,28.85
2023-02-11T14:37:50.658Z,19.67
2023-02-11T14:40:25.771Z,15.75
2023-02-11T14:42:54.101Z,32.80
2023-02-11T14:45:25.081Z,38.90
2023-02-11T14:47:57.875Z,35.80
2023-02-11T14:50:27.749Z,32.20
2023-02-11T14:52:56.008Z,27.95
2023-02-11T14:55:34.525Z,23.22
2023-02-11T14:58:07.520Z,26.55
2023-02-11T15:00:35.784Z,20.55
2023-02-11T15:03:04.102Z,40.43
2023-02-11T15:05:32.617Z,78.02
2023-02-11T15:08:01.814Z,45.80
2023-02-11T15:10:35.988Z,34.27
2023-02-11T15:13:04.253Z,51.92
2023-02-11T15:15:32.602Z,118.25
2023-02-11T15:18:01.644Z,142.65
2023-02-11T15:20:31.739Z,134.67
2023-02-11T15:23:01.239Z,107.12
2023-02-11T15:25:30.727Z,139.88
2023-02-11T15:27:59.457Z,115.28
2023-02-11T15:30:29.079Z,59.98
2023-02-11T15:32:59.991Z,75.97
2023-02-11T15:35:33.080Z,67.97
2023-02-11T15:38:01.363Z,61.90
2023-02-11T15:40:32.388Z,77.75
2023-02-11T15:43:02.697Z,57.43
2023-02-11T15:45:32.242Z,224.30
2023-02-11T15:48:02.094Z,137.70
2023-02-11T15:50:31.237Z,251.02
2023-02-11T15:53:01.072Z,75.72
2023-02-11T15:55:29.352Z,80.72
2023-02-11T15:57:58.673Z,85.67
2023-02-11T16:00:28.589Z,81.08
2023-02-11T16:02:56.859Z,69.00
2023-02-11T16:05:26.550Z,75.83
2023-02-11T16:07:55.665Z,81.67
2023-02-11T16:10:28.621Z,94.60
2023-02-11T16:12:58.534Z,114.40
2023-02-11T16:15:30.851Z,116.80
2023-02-11T16:17:59.143Z,140.37
2023-02-11T16:20:27.443Z,123.13
2023-02-11T16:22:55.856Z,137.75
2023-02-11T16:25:24.200Z,100.62
2023-02-11T16:27:52.802Z,96.32
2023-02-11T16:30:33.882Z,93.62
2023-02-11T16:33:02.855Z,61.50
2023-02-11T16:35:31.144Z,69.20
2023-02-11T16:37:59.408Z,64.25
2023-02-11T16:40:27.786Z,83.67
2023-02-11T16:42:56.155Z,87.08
2023-02-11T16:45:24.479Z,61.08
2023-02-11T16:47:52.741Z,93.90
2023-02-11T16:50:22.698Z,71.02
2023-02-11T16:52:52.463Z,45.40
2023-02-11T16:55:22.088Z,39.78
2023-02-11T16:57:50.704Z,48.23
2023-02-11T17:00:20.737Z,49.20
2023-02-11T17:02:49.006Z,66.87
2023-02-11T17:05:19.315Z,97.12
2023-02-11T17:07:47.680Z,50.35
2023-02-11T17:10:19.792Z,43.45
2023-02-11T17:12:48.232Z,38.92
2023-02-11T17:15:16.756Z,33.60
2023-02-11T17:17:45.975Z,31.37
2023-02-11T17:20:14.562Z,32.67
2023-02-11T17:22:42.835Z,36.77
2023-02-11T17:25:11.150Z,25.88
2023-02-11T17:27:39.514Z,23.85
2023-02-11T17:30:08.382Z,20.82
2023-02-11T17:32:36.892Z,35.55
2023-02-11T17:35:06.892Z,25.67
2023-02-11T17:37:35.264Z,45.05
2023-02-11T17:40:03.606Z,42.78
2023-02-11T17:42:32.861Z,48.00
2023-02-11T17:45:01.181Z,47.75
2023-02-11T17:47:30.392Z,51.53
2023-02-11T17:49:58.591Z,17.25
2023-02-11T17:52:28.220Z,35.20
2023-02-11T17:54:58.018Z,39.08
2023-02-11T17:57:26.394Z,46.92
2023-02-11T17:59:54.733Z,35.43
2023-02-11T18:02:23.052Z,43.38
2023-02-11T18:04:52.333Z,39.53
2023-02-11T18:07:20.849Z,40.70
2023-02-11T18:09:49.076Z,20.45
2023-02-11T18:12:19.088Z,32.63
2023-02-11T18:14:47.393Z,47.13
2023-02-11T18:17:15.756Z,30.20
2023-02-11T18:19:44.073Z,34.23
2023-02-11T18:22:12.607Z,36.68
2023-02-11T18:24:41.201Z,41.77
2023-02-11T18:27:09.518Z,40.08
2023-02-11T18:29:37.890Z,40.90
2023-02-11T18:32:06.243Z,64.00
2023-02-11T18:34:34.508Z,24.82
2023-02-11T18:37:02.816Z,18.90
2023-02-11T18:39:31.220Z,13.32
2023-02-11T18:41:59.765Z,21.15
2023-02-11T18:44:28.974Z,18.92
2023-02-11T18:46:57.272Z,17.05
2023-02-11T18:49:25.490Z,37.65
2023-02-11T18:51:53.917Z,33.13
2023-02-11T18:54:22.172Z,39.23
2023-02-11T18:56:50.526Z,42.05
2023-02-11T18:59:18.809Z,22.45
2023-02-11T19:01:48.231Z,16.07
2023-02-11T19:04:18.244Z,27.17
2023-02-11T19:06:47.554Z,29.65
2023-02-11T19:09:16.505Z,24.27
2023-02-11T19:11:47.745Z,26.90
2023-02-11T19:14:23.062Z,29.42
2023-02-11T19:16:53.339Z,22.67
2023-02-11T19:19:22.931Z,26.23
2023-02-11T19:21:51.207Z,17.37
2023-02-11T19:24:19.996Z,24.40
2023-02-11T19:26:48.696Z,47.70
2023-02-11T19:29:17.218Z,101.95
2023-02-11T19:31:45.740Z,22.00
2023-02-11T19:34:15.562Z,34.65
2023-02-11T19:36:43.884Z,75.28
2023-02-11T19:39:12.360Z,32.33
2023-02-11T19:41:41.007Z,32.35
2023-02-11T19:44:09.558Z,36.45
2023-02-11T19:46:38.538Z,48.30
2023-02-11T19:49:06.984Z,81.90
2023-02-11T19:51:36.982Z,26.45
2023-02-11T19:54:05.819Z,32.05
2023-02-11T19:56:34.114Z,30.45
2023-02-11T19:59:02.891Z,106.37
2023-02-11T20:01:31.224Z,18.48
2023-02-11T20:03:59.699Z,23.00
2023-02-11T20:06:29.263Z,34.58
2023-02-11T20:08:58.998Z,26.27
2023-02-11T20:11:28.383Z,59.30
2023-02-11T20:13:57.827Z,27.25
2023-02-11T20:16:44.637Z,24.25
2023-02-11T20:18:56.932Z,19.87
2023-02-11T20:21:26.232Z,53.48
2023-02-11T20:23:54.589Z,51.88
2023-02-11T20:26:26.206Z,60.25
2023-02-11T20:28:54.969Z,108.10
2023-02-11T20:31:23.636Z,24.23
2023-02-11T20:33:51.977Z,36.50
2023-02-11T20:36:21.513Z,88.17
2023-02-11T20:38:49.859Z,35.65
2023-02-11T20:41:19.122Z,49.33
2023-02-11T20:43:48.675Z,33.80
2023-02-11T20:46:17.380Z,31.77
2023-02-11T20:48:45.710Z,24.12
2023-02-11T20:51:14.888Z,23.12
2023-02-11T20:53:45.466Z,34.88
2023-02-11T20:56:13.774Z,39.85
2023-02-11T20:58:41.988Z,28.10
2023-02-11T21:01:11.050Z,35.95
2023-02-11T21:03:39.309Z,34.38
2023-02-11T21:06:08.036Z,36.90
2023-02-11T21:08:36.271Z,20.40
2023-02-11T21:11:06.280Z,24.90
2023-02-11T21:13:34.635Z,32.83
2023-02-11T21:16:03.008Z,37.15
2023-02-11T21:18:31.434Z,40.30
2023-02-11T21:20:59.746Z,33.48
2023-02-11T21:23:29.062Z,51.58
2023-02-11T21:25:57.610Z,29.82
2023-02-11T21:28:28.844Z,32.08
2023-02-11T21:30:57.394Z,39.88
2023-02-11T21:33:26.261Z,39.98
2023-02-11T21:35:59.303Z,67.12
2023-02-11T21:38:27.624Z,20.48
2023-02-11T21:40:55.884Z,33.90
2023-02-11T21:43:24.896Z,30.02
2023-02-11T21:45:53.480Z,25.25
2023-02-11T21:48:23.792Z,27.30
2023-02-11T21:50:52.089Z,17.73
2023-02-11T21:53:20.430Z,17.82
2023-02-11T21:55:50.407Z,9.20
2023-02-11T21:58:18.679Z,11.00
2023-02-11T22:00:47.009Z,20.48
2023-02-11T22:03:15.371Z,14.20
2023-02-11T22:05:43.636Z,18.85
2023-02-11T22:08:12.508Z,7.58
2023-02-11T22:10:40.909Z,7.90
2023-02-11T22:13:09.226Z,11.57
2023-02-11T22:15:37.438Z,7.72
2023-02-11T22:18:05.891Z,11.12
2023-02-11T22:20:34.225Z,15.50
2023-02-11T22:23:02.565Z,22.52
2023-02-11T22:25:30.780Z,14.00
2023-02-11T22:27:59.178Z,41.95
2023-02-11T22:30:27.428Z,19.12
2023-02-11T22:32:55.821Z,40.73
2023-02-11T22:35:24.103Z,30.02
2023-02-11T22:37:52.390Z,13.40
2023-02-11T22:40:20.661Z,40.25
2023-02-11T22:42:48.949Z,49.70
2023-02-11T22:45:17.334Z,42.70
2023-02-11T22:47:45.616Z,30.12
2023-02-11T22:50:13.922Z,30.32
2023-02-11T22:52:42.219Z,20.02
2023-02-11T22:55:10.707Z,24.55
2023-02-11T22:57:39.042Z,15.85
2023-02-11T23:00:09.272Z,19.77
2023-02-11T23:02:37.611Z,27.82
2023-02-11T23:05:06.071Z,12.18
2023-02-11T23:07:34.352Z,28.10
2023-02-11T23:10:02.569Z,28.50
2023-02-11T23:12:30.903Z,30.35
2023-02-11T23:14:59.132Z,12.88
2023-02-11T23:17:28.898Z,15.80
2023-02-11T23:19:57.132Z,6.20
2023-02-11T23:22:25.442Z,20.20
2023-02-11T23:24:53.681Z,21.45
2023-02-11T23:27:22.013Z,23.73
2023-02-11T23:29:50.248Z,28.42
2023-02-11T23:32:19.212Z,9.15
2023-02-11T23:34:47.537Z,23.83
2023-02-11T23:37:15.814Z,3.47
2023-02-11T23:39:44.084Z,11.10
2023-02-11T23:42:12.365Z,3.65
2023-02-11T23:44:40.628Z,12.93
2023-02-11T23:47:08.863Z,4.65
2023-02-11T23:49:37.108Z,8.25
2023-02-11T23:52:05.384Z,9.45
2023-02-11T23:54:33.660Z,5.08
2023-02-11T23:57:02.030Z,7.78
2023-02-11T23:59:30.240Z,17.62
